createdAt,value
2024-02-29T00:00:29.088Z,13.87
2024-02-29T00:02:55.652Z,15.23
2024-02-29T00:05:22.317Z,15.30
2024-02-29T00:07:48.814Z,14.87
2024-02-29T00:10:15.878Z,14.77
2024-02-29T00:12:42.989Z,13.80
2024-02-29T00:15:09.674Z,13.27
2024-02-29T00:17:36.275Z,14.70
2024-02-29T00:20:02.837Z,14.70
2024-02-29T00:22:29.414Z,16.37
2024-02-29T00:24:56.606Z,14.27
2024-02-29T00:27:23.321Z,13.87
2024-02-29T00:29:49.889Z,12.33
2024-02-29T00:32:16.419Z,13.20
2024-02-29T00:34:42.915Z,13.30
2024-02-29T00:37:09.489Z,12.30
2024-02-29T00:39:36.187Z,11.83
2024-02-29T00:42:02.727Z,11.53
2024-02-29T00:44:29.258Z,12.37
2024-02-29T00:46:55.841Z,11.57
2024-02-29T00:49:22.362Z,11.77
2024-02-29T00:51:49.174Z,11.30
2024-02-29T00:54:15.781Z,11.57
2024-02-29T00:56:42.841Z,11.60
2024-02-29T00:59:09.369Z,10.97
2024-02-29T01:01:38.557Z,10.93
2024-02-29T01:04:05.376Z,10.80
2024-02-29T01:06:32.028Z,10.60
2024-02-29T01:08:58.574Z,10.40
2024-02-29T01:11:25.108Z,10.67
2024-02-29T01:13:51.667Z,9.47
2024-02-29T01:16:18.272Z,9.67
2024-02-29T01:18:44.868Z,9.57
2024-02-29T01:21:11.438Z,9.37
2024-02-29T01:23:38.035Z,9.03
2024-02-29T01:26:05.433Z,9.40
2024-02-29T01:28:31.992Z,8.73
2024-02-29T01:30:58.638Z,9.10
2024-02-29T01:33:25.263Z,8.90
2024-02-29T01:35:51.801Z,9.00
2024-02-29T01:38:18.373Z,9.03
2024-02-29T01:40:47.727Z,8.70
2024-02-29T01:43:14.503Z,8.20
2024-02-29T01:45:41.117Z,8.40
2024-02-29T01:48:08.839Z,8.20
2024-02-29T01:50:36.417Z,7.77
2024-02-29T01:53:02.978Z,8.10
2024-02-29T01:55:29.583Z,9.10
2024-02-29T01:57:56.140Z,8.00
2024-02-29T02:00:22.679Z,8.33
2024-02-29T02:02:49.212Z,8.30
2024-02-29T02:05:15.753Z,8.20
2024-02-29T02:07:42.798Z,8.80
2024-02-29T02:10:11.894Z,7.17
2024-02-29T02:12:38.452Z,7.60
2024-02-29T02:15:05.135Z,8.00
2024-02-29T02:17:33.780Z,8.83
2024-02-29T02:20:01.030Z,7.90
2024-02-29T02:22:28.495Z,8.13
2024-02-29T02:24:55.128Z,7.57
2024-02-29T02:27:22.054Z,7.77
2024-02-29T02:29:48.584Z,8.07
2024-02-29T02:32:15.139Z,7.67
2024-02-29T02:34:41.686Z,8.50
2024-02-29T02:37:08.304Z,8.43
2024-02-29T02:39:34.973Z,8.20
2024-02-29T02:42:02.272Z,8.13
2024-02-29T02:44:28.880Z,8.20
2024-02-29T02:46:55.501Z,8.67
2024-02-29T02:49:22.125Z,8.10
2024-02-29T02:51:48.741Z,8.63
2024-02-29T02:54:15.280Z,8.47
2024-02-29T02:56:41.825Z,8.63
2024-02-29T02:59:08.334Z,8.83
2024-02-29T03:01:35.030Z,8.70
2024-02-29T03:04:01.928Z,8.77
2024-02-29T03:06:28.461Z,8.60
2024-02-29T03:08:55.030Z,9.20
2024-02-29T03:11:21.606Z,8.80
2024-02-29T03:13:48.156Z,8.53
2024-02-29T03:16:21.182Z,8.90
2024-02-29T03:18:47.740Z,8.57
2024-02-29T03:21:15.776Z,9.17
2024-02-29T03:23:42.452Z,9.00
2024-02-29T03:26:08.968Z,9.27
2024-02-29T03:28:35.505Z,9.73
2024-02-29T03:31:02.031Z,8.43
2024-02-29T03:33:28.637Z,9.03
2024-02-29T03:35:55.175Z,8.70
2024-02-29T03:38:22.544Z,8.97
2024-02-29T03:40:50.684Z,9.53
2024-02-29T03:43:17.259Z,9.30
2024-02-29T03:45:43.897Z,9.67
2024-02-29T03:48:10.473Z,8.97
2024-02-29T03:50:37.013Z,8.30
2024-02-29T03:53:03.554Z,9.07
2024-02-29T03:55:30.091Z,9.60
2024-02-29T03:57:56.673Z,9.50
2024-02-29T04:00:23.616Z,9.30
2024-02-29T04:02:50.721Z,8.70
2024-02-29T04:05:17.306Z,10.57
2024-02-29T04:07:43.852Z,9.70
2024-02-29T04:10:12.256Z,9.43
2024-02-29T04:12:38.983Z,9.33
2024-02-29T04:15:05.782Z,9.23
2024-02-29T04:17:33.739Z,9.67
2024-02-29T04:20:00.551Z,9.37
2024-02-29T04:22:27.106Z,9.50
2024-02-29T04:24:53.660Z,9.77
2024-02-29T04:27:20.230Z,10.50
2024-02-29T04:29:49.632Z,14.07
2024-02-29T04:32:16.159Z,15.53
2024-02-29T04:34:42.838Z,12.97
2024-02-29T04:37:09.507Z,11.23
2024-02-29T04:39:36.536Z,9.17
2024-02-29T04:42:04.802Z,10.40
2024-02-29T04:44:31.450Z,10.60
2024-02-29T04:46:58.026Z,10.40
2024-02-29T04:49:24.597Z,10.33
2024-02-29T04:51:51.226Z,9.67
2024-02-29T04:54:18.101Z,10.73
2024-02-29T04:56:44.652Z,10.30
2024-02-29T04:59:11.535Z,10.07
2024-02-29T05:01:38.184Z,10.43
2024-02-29T05:04:04.877Z,10.63
2024-02-29T05:06:31.662Z,16.13
2024-02-29T05:08:58.297Z,13.83
2024-02-29T05:11:24.892Z,10.27
2024-02-29T05:13:51.559Z,9.77
2024-02-29T05:16:21.632Z,10.23
2024-02-29T05:18:48.270Z,10.30
2024-02-29T05:21:14.812Z,9.33
2024-02-29T05:23:41.354Z,9.27
2024-02-29T05:26:09.161Z,10.20
2024-02-29T05:28:35.716Z,9.40
2024-02-29T05:31:02.331Z,9.20
2024-02-29T05:33:28.903Z,9.30
2024-02-29T05:35:55.453Z,8.17
2024-02-29T05:38:22.004Z,9.30
2024-02-29T05:40:48.668Z,9.00
2024-02-29T05:43:17.646Z,8.73
2024-02-29T05:45:44.438Z,8.73
2024-02-29T05:48:11.007Z,8.53
2024-02-29T05:50:37.534Z,8.40
2024-02-29T05:53:04.223Z,9.03
2024-02-29T05:55:30.779Z,8.33
2024-02-29T05:57:57.335Z,9.60
2024-02-29T06:00:23.935Z,17.93
2024-02-29T06:02:52.875Z,16.53
2024-02-29T06:05:20.332Z,11.30
2024-02-29T06:07:46.880Z,8.40
2024-02-29T06:10:13.481Z,8.47
2024-02-29T06:12:40.101Z,8.33
2024-02-29T06:15:10.723Z,7.87
2024-02-29T06:17:37.786Z,8.00
2024-02-29T06:20:05.358Z,8.07
2024-02-29T06:22:31.895Z,8.33
2024-02-29T06:24:58.499Z,7.47
2024-02-29T06:27:25.017Z,7.60
2024-02-29T06:29:51.544Z,7.87
2024-02-29T06:32:18.102Z,7.40
2024-02-29T06:34:44.628Z,7.97
2024-02-29T06:37:13.032Z,7.77
2024-02-29T06:39:39.705Z,8.50
2024-02-29T06:42:06.296Z,10.30
2024-02-29T06:44:32.856Z,8.77
2024-02-29T06:46:59.363Z,12.03
2024-02-29T06:49:25.922Z,8.47
2024-02-29T06:51:52.557Z,8.13
2024-02-29T06:54:21.776Z,9.43
2024-02-29T06:56:48.275Z,8.33
2024-02-29T06:59:15.071Z,8.40
2024-02-29T07:01:41.819Z,8.80
2024-02-29T07:04:08.708Z,9.27
2024-02-29T07:06:36.178Z,10.50
2024-02-29T07:09:02.749Z,8.97
2024-02-29T07:11:32.183Z,9.67
2024-02-29T07:13:58.993Z,9.03
2024-02-29T07:16:26.926Z,8.80
2024-02-29T07:18:53.491Z,9.53
2024-02-29T07:21:20.011Z,8.87
2024-02-29T07:23:46.502Z,9.00
2024-02-29T07:26:13.724Z,9.07
2024-02-29T07:28:43.060Z,9.23
2024-02-29T07:31:09.724Z,9.43
2024-02-29T07:33:38.591Z,10.00
2024-02-29T07:36:05.778Z,9.33
2024-02-29T07:38:32.389Z,9.40
2024-02-29T07:40:58.894Z,8.60
2024-02-29T07:43:25.518Z,9.73
2024-02-29T07:45:52.212Z,8.80
2024-02-29T07:48:18.826Z,9.53
2024-02-29T07:50:45.372Z,9.37
2024-02-29T07:53:11.877Z,10.30
2024-02-29T07:55:38.388Z,10.00
2024-02-29T07:58:06.698Z,9.40
2024-02-29T08:00:33.330Z,9.87
2024-02-29T08:02:59.829Z,10.17
2024-02-29T08:05:26.370Z,10.27
2024-02-29T08:07:53.048Z,9.07
2024-02-29T08:10:19.697Z,11.60
2024-02-29T08:12:46.503Z,9.87
2024-02-29T08:15:16.144Z,10.00
2024-02-29T08:17:42.690Z,10.07
2024-02-29T08:20:09.871Z,9.37
2024-02-29T08:22:36.609Z,10.27
2024-02-29T08:25:03.464Z,9.57
2024-02-29T08:27:30.424Z,8.57
2024-02-29T08:29:57.198Z,9.13
2024-02-29T08:32:23.812Z,8.80
2024-02-29T08:34:50.478Z,9.83
2024-02-29T08:37:17.022Z,8.57
2024-02-29T08:39:43.560Z,9.17
2024-02-29T08:42:11.091Z,9.30
2024-02-29T08:44:37.662Z,8.47
2024-02-29T08:47:05.958Z,9.20
2024-02-29T08:49:32.603Z,8.87
2024-02-29T08:51:59.206Z,8.97
2024-02-29T08:54:25.857Z,8.27
2024-02-29T08:56:53.513Z,8.77
2024-02-29T08:59:19.994Z,7.70
2024-02-29T09:01:46.598Z,9.07
2024-02-29T09:04:13.383Z,9.30
2024-02-29T09:06:41.941Z,9.30
2024-02-29T09:09:09.115Z,7.77
2024-02-29T09:11:35.798Z,8.47
2024-02-29T09:14:02.484Z,8.33
2024-02-29T09:16:29.096Z,8.20
2024-02-29T09:18:55.748Z,7.37
2024-02-29T09:21:22.261Z,7.10
2024-02-29T09:23:50.833Z,7.30
2024-02-29T09:26:19.485Z,7.47
2024-02-29T09:28:46.394Z,7.63
2024-02-29T09:31:15.725Z,7.70
2024-02-29T09:33:42.477Z,7.03
2024-02-29T09:36:10.471Z,6.93
2024-02-29T09:38:37.289Z,7.13
2024-02-29T09:41:13.188Z,7.60
2024-02-29T09:43:52.663Z,6.80
2024-02-29T09:46:19.321Z,7.33
2024-02-29T09:48:46.098Z,7.00
2024-02-29T09:51:14.574Z,6.87
2024-02-29T09:53:42.574Z,7.03
2024-02-29T09:56:10.648Z,7.40
2024-02-29T09:58:37.406Z,6.70
2024-02-29T10:01:05.179Z,6.57
2024-02-29T10:03:32.808Z,6.73
2024-02-29T10:06:00.128Z,5.93
2024-02-29T10:08:26.837Z,6.20
2024-02-29T10:10:55.164Z,6.27
2024-02-29T10:13:21.923Z,6.57
2024-02-29T10:15:51.479Z,6.20
2024-02-29T10:18:18.067Z,6.70
2024-02-29T10:20:44.622Z,6.10
2024-02-29T10:23:13.072Z,6.23
2024-02-29T10:25:41.645Z,6.20
2024-02-29T10:28:12.652Z,6.30
2024-02-29T10:30:39.177Z,5.90
2024-02-29T10:33:09.570Z,5.97
2024-02-29T10:35:37.005Z,5.87
2024-02-29T10:38:07.846Z,6.00
2024-02-29T10:40:34.407Z,5.33
2024-02-29T10:43:03.231Z,5.63
2024-02-29T10:45:30.637Z,5.60
2024-02-29T10:48:15.897Z,5.60
2024-02-29T10:51:02.686Z,6.10
2024-02-29T10:53:49.753Z,5.47
2024-02-29T10:56:26.180Z,5.20
2024-02-29T10:59:06.259Z,5.67
2024-02-29T11:01:33.281Z,5.93
2024-02-29T11:04:00.305Z,6.07
2024-02-29T11:06:28.866Z,6.00
2024-02-29T11:08:56.094Z,6.20
2024-02-29T11:11:25.591Z,5.20
2024-02-29T11:14:04.985Z,5.40
2024-02-29T11:16:32.593Z,5.10
2024-02-29T11:19:03.649Z,5.13
2024-02-29T11:21:30.354Z,6.00
2024-02-29T11:24:04.377Z,5.47
2024-02-29T11:26:32.606Z,5.07
2024-02-29T11:29:00.486Z,5.10
2024-02-29T11:31:29.266Z,4.83
2024-02-29T11:33:57.244Z,5.03
2024-02-29T11:36:24.818Z,4.93
2024-02-29T11:38:51.467Z,5.13
2024-02-29T11:41:18.707Z,5.00
2024-02-29T11:43:45.727Z,5.43
2024-02-29T11:46:12.697Z,6.80
2024-02-29T11:48:39.878Z,6.10
2024-02-29T11:51:08.449Z,4.30
2024-02-29T11:53:35.412Z,4.93
2024-02-29T11:56:10.684Z,5.23
2024-02-29T11:58:42.005Z,4.90
2024-02-29T12:01:08.662Z,4.83
2024-02-29T12:03:36.298Z,4.27
2024-02-29T12:06:02.924Z,3.90
2024-02-29T12:08:30.158Z,4.50
2024-02-29T12:10:59.875Z,4.80
2024-02-29T12:13:30.348Z,4.70
2024-02-29T12:15:57.405Z,4.53
2024-02-29T12:18:24.151Z,6.13
2024-02-29T12:20:51.181Z,7.13
2024-02-29T12:23:18.958Z,4.80
2024-02-29T12:25:45.609Z,5.40
2024-02-29T12:28:15.624Z,7.97
2024-02-29T12:30:42.693Z,4.87
2024-02-29T12:33:14.432Z,4.67
2024-02-29T12:35:43.195Z,4.77
2024-02-29T12:38:14.182Z,4.70
2024-02-29T12:40:40.769Z,4.60
2024-02-29T12:43:07.392Z,4.30
2024-02-29T12:45:34.792Z,5.17
2024-02-29T12:48:02.105Z,4.50
2024-02-29T12:50:28.647Z,4.90
2024-02-29T12:52:55.656Z,4.77
2024-02-29T12:55:23.199Z,4.90
2024-02-29T12:57:50.212Z,5.33
2024-02-29T13:00:21.353Z,4.73
2024-02-29T13:02:48.416Z,4.60
2024-02-29T13:05:15.491Z,4.70
2024-02-29T13:07:42.853Z,4.87
2024-02-29T13:10:09.794Z,5.00
2024-02-29T13:12:36.886Z,5.40
2024-02-29T13:15:03.961Z,4.47
2024-02-29T13:17:30.732Z,4.60
2024-02-29T13:19:57.269Z,3.90
2024-02-29T13:22:23.812Z,4.40
2024-02-29T13:24:50.368Z,4.90
2024-02-29T13:27:16.973Z,4.30
2024-02-29T13:29:43.510Z,4.00
2024-02-29T13:32:10.239Z,4.37
2024-02-29T13:34:36.759Z,3.97
2024-02-29T13:37:03.471Z,4.90
2024-02-29T13:39:30.106Z,5.00
2024-02-29T13:41:59.127Z,5.13
2024-02-29T13:44:25.609Z,4.00
2024-02-29T13:46:52.122Z,4.50
2024-02-29T13:49:21.899Z,4.37
2024-02-29T13:51:49.812Z,3.83
2024-02-29T13:54:16.395Z,4.10
2024-02-29T13:56:43.048Z,4.10
2024-02-29T13:59:09.638Z,3.90
2024-02-29T14:01:36.273Z,3.67
2024-02-29T14:04:03.010Z,3.97
2024-02-29T14:06:29.594Z,4.47
2024-02-29T14:08:56.094Z,4.20
2024-02-29T14:11:22.713Z,3.63
2024-02-29T14:13:49.681Z,4.20
2024-02-29T14:16:16.308Z,4.20
2024-02-29T14:18:42.876Z,3.77
2024-02-29T14:21:09.426Z,3.70
2024-02-29T14:23:35.941Z,3.40
2024-02-29T14:26:03.851Z,3.30
2024-02-29T14:28:30.472Z,3.20
2024-02-29T14:30:57.183Z,3.00
2024-02-29T14:33:23.796Z,3.27
2024-02-29T14:35:50.444Z,3.40
2024-02-29T14:38:17.398Z,3.37
2024-02-29T14:40:43.927Z,3.10
2024-02-29T14:43:10.526Z,3.10
2024-02-29T14:45:37.044Z,3.03
2024-02-29T14:48:04.034Z,3.30
2024-02-29T14:50:30.558Z,2.93
2024-02-29T14:52:57.430Z,3.00
2024-02-29T14:55:24.076Z,3.40
2024-02-29T14:57:50.967Z,3.40
2024-02-29T15:00:18.119Z,3.30
2024-02-29T15:02:47.060Z,3.03
2024-02-29T15:05:14.317Z,2.67
2024-02-29T15:07:42.205Z,3.00
2024-02-29T15:10:09.531Z,3.33
2024-02-29T15:12:36.083Z,2.83
2024-02-29T15:15:02.598Z,2.70
2024-02-29T15:17:32.990Z,2.93
2024-02-29T15:20:01.163Z,5.30
2024-02-29T15:22:28.246Z,2.80
2024-02-29T15:24:55.381Z,4.30
2024-02-29T15:27:22.545Z,3.70
2024-02-29T15:29:50.272Z,3.53
2024-02-29T15:32:18.055Z,3.70
2024-02-29T15:34:47.426Z,2.97
2024-02-29T15:37:14.553Z,2.87
2024-02-29T15:39:41.175Z,2.90
2024-02-29T15:42:07.709Z,2.77
2024-02-29T15:44:34.944Z,2.97
2024-02-29T15:47:01.543Z,2.80
2024-02-29T15:49:28.128Z,2.83
2024-02-29T15:51:54.675Z,2.80
2024-02-29T15:54:22.508Z,2.80
2024-02-29T15:56:49.285Z,2.73
2024-02-29T15:59:16.950Z,2.60
2024-02-29T16:01:43.567Z,2.53
2024-02-29T16:04:10.193Z,2.70
2024-02-29T16:06:36.716Z,2.67
2024-02-29T16:09:03.276Z,2.27
2024-02-29T16:11:30.083Z,2.30
2024-02-29T16:13:56.669Z,2.27
2024-02-29T16:16:23.852Z,2.40
2024-02-29T16:18:50.658Z,2.00
2024-02-29T16:21:17.220Z,2.50
2024-02-29T16:23:45.333Z,2.17
2024-02-29T16:26:11.893Z,3.53
2024-02-29T16:28:38.570Z,3.13
2024-02-29T16:31:05.415Z,3.23
2024-02-29T16:33:32.089Z,2.50
2024-02-29T16:35:58.670Z,2.53
2024-02-29T16:38:25.224Z,2.40
2024-02-29T16:40:55.783Z,2.20
2024-02-29T16:43:23.071Z,2.50
2024-02-29T16:45:50.300Z,2.60
2024-02-29T16:48:17.072Z,2.70
2024-02-29T16:50:45.193Z,2.50
2024-02-29T16:53:12.692Z,2.67
2024-02-29T16:55:39.233Z,2.93
2024-02-29T16:58:05.846Z,3.17
2024-02-29T17:00:32.629Z,3.07
2024-02-29T17:03:00.371Z,3.10
2024-02-29T17:05:27.108Z,2.77
2024-02-29T17:07:53.809Z,3.10
2024-02-29T17:10:20.417Z,2.70
2024-02-29T17:12:47.010Z,2.70
2024-02-29T17:15:13.656Z,3.30
2024-02-29T17:17:40.276Z,3.00
2024-02-29T17:20:07.180Z,3.03
2024-02-29T17:22:33.812Z,3.03
2024-02-29T17:25:00.409Z,4.23
2024-02-29T17:27:27.009Z,3.63
2024-02-29T17:29:53.875Z,3.77
2024-02-29T17:32:20.859Z,3.10
2024-02-29T17:34:49.061Z,3.07
2024-02-29T17:37:15.646Z,3.17
2024-02-29T17:39:42.962Z,2.63
2024-02-29T17:42:09.809Z,3.03
2024-02-29T17:44:36.436Z,3.23
2024-02-29T17:47:03.048Z,3.57
2024-02-29T17:49:31.797Z,3.37
2024-02-29T17:51:58.707Z,3.43
2024-02-29T17:54:25.339Z,3.03
2024-02-29T17:56:52.283Z,3.37
2024-02-29T17:59:19.642Z,3.00
2024-02-29T18:01:47.360Z,3.63
2024-02-29T18:04:14.014Z,2.83
2024-02-29T18:06:40.610Z,3.63
2024-02-29T18:09:07.645Z,3.60
2024-02-29T18:11:34.305Z,3.63
2024-02-29T18:14:04.565Z,3.87
2024-02-29T18:16:33.754Z,3.13
2024-02-29T18:19:00.697Z,3.23
2024-02-29T18:21:27.629Z,3.60
2024-02-29T18:23:54.313Z,3.77
2024-02-29T18:26:22.688Z,3.93
2024-02-29T18:28:49.488Z,3.37
2024-02-29T18:31:18.338Z,3.90
2024-02-29T18:33:44.978Z,4.10
2024-02-29T18:36:11.581Z,3.77
2024-02-29T18:38:38.101Z,3.73
2024-02-29T18:41:04.893Z,3.30
2024-02-29T18:43:31.471Z,3.67
2024-02-29T18:46:05.450Z,3.40
2024-02-29T18:48:33.304Z,3.23
2024-02-29T18:51:01.044Z,3.30
2024-02-29T18:53:27.569Z,3.57
2024-02-29T18:55:54.216Z,3.40
2024-02-29T18:58:20.812Z,3.27
2024-02-29T19:00:47.849Z,3.20
2024-02-29T19:03:14.476Z,2.80
2024-02-29T19:05:41.163Z,3.07
2024-02-29T19:08:08.451Z,2.70
2024-02-29T19:10:35.171Z,3.00
2024-02-29T19:13:01.750Z,2.70
2024-02-29T19:15:28.288Z,2.47
2024-02-29T19:17:54.887Z,2.67
2024-02-29T19:20:21.542Z,3.07
2024-02-29T19:22:48.610Z,2.80
2024-02-29T19:25:15.288Z,3.00
2024-02-29T19:27:42.395Z,2.97
2024-02-29T19:30:10.904Z,3.00
2024-02-29T19:32:37.541Z,2.83
2024-02-29T19:35:04.672Z,3.10
2024-02-29T19:37:31.262Z,3.20
2024-02-29T19:39:57.875Z,3.00
2024-02-29T19:42:25.440Z,3.03
2024-02-29T19:44:54.258Z,2.87
2024-02-29T19:47:24.484Z,3.00
2024-02-29T19:49:51.064Z,3.10
2024-02-29T19:52:17.923Z,3.03
2024-02-29T19:54:44.758Z,2.80
2024-02-29T19:57:11.354Z,2.43
2024-02-29T19:59:37.956Z,3.40
2024-02-29T20:02:04.626Z,2.90
2024-02-29T20:04:31.233Z,3.30
2024-02-29T20:06:57.957Z,2.90
2024-02-29T20:09:24.660Z,3.37
2024-02-29T20:11:51.228Z,3.00
2024-02-29T20:14:17.900Z,3.10
2024-02-29T20:16:44.460Z,2.67
2024-02-29T20:19:11.137Z,3.10
2024-02-29T20:21:37.729Z,2.90
2024-02-29T20:24:04.472Z,2.57
2024-02-29T20:26:31.027Z,2.70
2024-02-29T20:28:57.518Z,3.10
2024-02-29T20:31:24.308Z,2.97
2024-02-29T20:33:52.798Z,3.13
2024-02-29T20:36:19.614Z,2.50
2024-02-29T20:38:46.150Z,2.73
2024-02-29T20:41:12.834Z,2.60
2024-02-29T20:43:39.365Z,2.83
2024-02-29T20:46:05.941Z,3.00
2024-02-29T20:48:32.444Z,2.97
2024-02-29T20:50:58.971Z,3.27
2024-02-29T20:53:25.630Z,3.03
2024-02-29T20:55:52.150Z,2.57
2024-02-29T20:58:18.783Z,2.93
2024-02-29T21:00:45.397Z,2.80
2024-02-29T21:03:12.005Z,3.20
2024-02-29T21:05:38.555Z,2.90
2024-02-29T21:08:05.199Z,2.77
2024-02-29T21:10:31.797Z,3.17
2024-02-29T21:13:00.793Z,3.10
2024-02-29T21:15:28.038Z,3.40
2024-02-29T21:17:54.842Z,3.33
2024-02-29T21:20:22.721Z,3.00
2024-02-29T21:22:49.251Z,3.00
2024-02-29T21:25:16.014Z,3.30
2024-02-29T21:27:42.738Z,3.00
2024-02-29T21:30:09.711Z,3.27
2024-02-29T21:32:36.349Z,3.33
2024-02-29T21:35:04.140Z,3.47
2024-02-29T21:37:30.804Z,3.20
2024-02-29T21:39:57.754Z,3.10
2024-02-29T21:42:24.302Z,3.33
2024-02-29T21:44:51.995Z,3.50
2024-02-29T21:47:18.535Z,3.70
2024-02-29T21:49:45.845Z,3.10
2024-02-29T21:52:13.076Z,3.57
2024-02-29T21:54:39.940Z,4.17
2024-02-29T21:57:06.471Z,3.70
2024-02-29T21:59:32.999Z,4.50
2024-02-29T22:02:01.786Z,3.73
2024-02-29T22:04:28.499Z,4.87
2024-02-29T22:06:55.152Z,4.90
2024-02-29T22:09:21.721Z,5.00
2024-02-29T22:11:48.284Z,5.40
2024-02-29T22:14:14.912Z,5.60
2024-02-29T22:16:44.515Z,6.17
2024-02-29T22:19:12.591Z,5.73
2024-02-29T22:21:39.279Z,6.17
2024-02-29T22:24:06.141Z,5.93
2024-02-29T22:26:32.797Z,6.40
2024-02-29T22:28:59.676Z,6.60
2024-02-29T22:31:26.353Z,6.53
2024-02-29T22:33:53.001Z,6.17
2024-02-29T22:36:19.648Z,6.10
2024-02-29T22:38:49.086Z,5.97
2024-02-29T22:41:15.911Z,6.60
2024-02-29T22:43:42.531Z,6.00
2024-02-29T22:46:12.031Z,6.43
2024-02-29T22:48:38.640Z,6.73
2024-02-29T22:51:05.327Z,7.00
2024-02-29T22:53:34.371Z,6.60
2024-02-29T22:56:00.912Z,7.47
2024-02-29T22:58:27.616Z,6.97
2024-02-29T23:00:54.613Z,7.70
2024-02-29T23:03:24.086Z,6.77
2024-02-29T23:05:50.742Z,9.13
2024-02-29T23:08:17.606Z,7.47
2024-02-29T23:10:44.405Z,6.97
2024-02-29T23:13:11.397Z,7.80
2024-02-29T23:15:38.105Z,8.03
2024-02-29T23:18:05.222Z,7.80
2024-02-29T23:20:31.994Z,7.70
2024-02-29T23:23:00.887Z,8.43
2024-02-29T23:25:27.613Z,8.53
2024-02-29T23:27:54.340Z,9.00
2024-02-29T23:30:21.084Z,8.77
2024-02-29T23:32:47.627Z,8.83
2024-02-29T23:35:14.189Z,7.93
2024-02-29T23:37:40.690Z,8.97
2024-02-29T23:40:07.795Z,8.47
2024-02-29T23:42:34.396Z,8.13
2024-02-29T23:45:00.931Z,8.23
2024-02-29T23:47:27.464Z,8.13
2024-02-29T23:49:53.998Z,8.40
2024-02-29T23:52:20.545Z,9.00
2024-02-29T23:54:47.178Z,8.40
2024-02-29T23:57:13.867Z,8.23
2024-02-29T23:59:40.433Z,8.53
